Time;durP1;ratioP1;P1;durP2;ratioP2;P2;SDS_P1;SDS_P2;PMS_P1;PMS_P2;Temp;Humidity;BMP_temperature;BMP_pressure;BME280_temperature;BME280_humidity;BME280_pressure;Samples;Min_cycle;Max_cycle;Signal;HPM_P1;HPM_P2
2024/01/29 00:00:52;;;;;;;2.58;1.48;;;8.00;54.20;;;;;;5068860;28;20451;-91
2024/01/29 00:03:18;;;;;;;1.58;1.33;;;7.80;56.80;;;;;;5072889;28;20028;-84
2024/01/29 00:05:46;;;;;;;3.83;1.70;;;7.60;57.90;;;;;;5061432;28;20055;-89
2024/01/29 00:08:12;;;;;;;2.35;1.58;;;7.50;58.20;;;;;;5070373;28;20036;-84
2024/01/29 00:10:38;;;;;;;2.88;1.52;;;7.40;59.10;;;;;;5066653;28;20033;-89
2024/01/29 00:13:04;;;;;;;1.73;1.55;;;7.30;58.30;;;;;;5063271;28;20040;-85
2024/01/29 00:15:30;;;;;;;2.10;1.27;;;7.40;53.90;;;;;;5075426;28;20037;-84
2024/01/29 00:17:56;;;;;;;3.42;1.67;;;7.50;51.50;;;;;;5073941;28;20032;-85
2024/01/29 00:20:21;;;;;;;2.10;1.23;;;7.70;50.80;;;;;;5073180;28;20025;-90
2024/01/29 00:22:47;;;;;;;4.50;1.35;;;7.80;51.70;;;;;;5064531;28;20032;-87
2024/01/29 00:25:15;;;;;;;3.08;1.35;;;7.80;50.60;;;;;;5053194;28;20405;-84
2024/01/29 00:27:40;;;;;;;1.45;1.30;;;8.00;50.20;;;;;;5064214;28;20028;-84
2024/01/29 00:30:07;;;;;;;2.22;1.40;;;8.10;50.00;;;;;;5069084;28;20024;-84
2024/01/29 00:32:33;;;;;;;5.38;1.38;;;8.10;49.50;;;;;;5071297;28;20310;-84
2024/01/29 00:34:59;;;;;;;1.42;1.17;;;8.10;49.50;;;;;;5064993;28;20038;-87
2024/01/29 00:37:26;;;;;;;2.85;1.45;;;8.20;47.70;;;;;;5068563;28;20873;-86
2024/01/29 00:39:52;;;;;;;2.53;1.20;;;8.20;48.40;;;;;;5065411;28;20063;-83
2024/01/29 00:42:20;;;;;;;2.13;1.27;;;8.40;45.20;;;;;;5065506;28;20056;-86
2024/01/29 00:44:49;;;;;;;1.50;1.40;;;8.50;45.00;;;;;;5072012;28;20060;-85
2024/01/29 00:47:15;;;;;;;2.67;1.20;;;8.60;44.80;;;;;;5063734;28;20113;-90
2024/01/29 00:49:40;;;;;;;5.18;1.30;;;8.80;41.30;;;;;;5075399;28;20052;-84
2024/01/29 00:52:06;;;;;;;1.33;1.02;;;9.10;41.30;;;;;;5056663;28;20030;-86
2024/01/29 00:54:32;;;;;;;2.95;1.17;;;9.10;42.50;;;;;;5061663;28;20171;-84
2024/01/29 00:56:58;;;;;;;2.63;1.30;;;9.10;42.10;;;;;;5053789;28;20131;-89
2024/01/29 00:59:23;;;;;;;1.83;0.90;;;9.00;42.40;;;;;;5043558;28;20033;-86
2024/01/29 01:01:49;;;;;;;1.10;0.95;;;8.90;43.10;;;;;;5066148;28;20032;-84
2024/01/29 01:04:15;;;;;;;1.45;1.27;;;8.80;43.10;;;;;;5063334;28;20040;-84
2024/01/29 01:06:41;;;;;;;1.58;1.13;;;8.80;42.30;;;;;;5059454;28;20112;-85
2024/01/29 01:09:09;;;;;;;2.85;1.42;;;8.90;42.30;;;;;;5076221;28;20169;-85
2024/01/29 01:11:37;;;;;;;3.20;1.20;;;8.80;42.50;;;;;;5069160;28;20103;-95
2024/01/29 01:14:03;;;;;;;2.17;1.20;;;8.90;41.90;;;;;;5074542;28;20033;-85
2024/01/29 01:16:28;;;;;;;1.30;1.20;;;8.90;42.80;;;;;;5066796;28;20488;-83
2024/01/29 01:18:54;;;;;;;2.00;1.23;;;8.80;42.10;;;;;;5061865;28;20499;-84
2024/01/29 01:21:20;;;;;;;5.30;1.25;;;8.90;42.30;;;;;;5066590;28;20503;-83
2024/01/29 01:23:46;;;;;;;1.70;1.23;;;8.90;41.60;;;;;;5069868;28;20095;-85
2024/01/29 01:26:12;;;;;;;3.45;1.15;;;8.90;41.50;;;;;;5067505;28;20025;-88
2024/01/29 01:28:38;;;;;;;1.40;1.10;;;8.90;41.50;;;;;;5083797;28;20036;-83
2024/01/29 01:31:04;;;;;;;1.80;1.27;;;9.00;41.30;;;;;;5059722;28;20031;-83
2024/01/29 01:33:29;;;;;;;1.60;1.30;;;9.00;41.40;;;;;;5071355;28;20382;-89
2024/01/29 01:35:55;;;;;;;4.80;1.30;;;8.90;41.20;;;;;;5075620;28;20047;-94
2024/01/29 01:38:20;;;;;;;2.25;1.20;;;9.00;40.70;;;;;;5070746;28;20694;-83
2024/01/29 01:40:46;;;;;;;1.55;1.10;;;8.90;41.70;;;;;;5061188;28;20071;-83
2024/01/29 01:43:20;;;;;;;1.48;1.13;;;8.90;41.40;;;;;;5073510;28;20032;-89
2024/01/29 01:46:03;;;;;;;1.38;0.98;;;8.90;40.90;;;;;;5066698;28;20043;-81
2024/01/29 01:48:29;;;;;;;1.30;1.10;;;8.90;40.80;;;;;;5060964;28;20063;-85
2024/01/29 01:50:55;;;;;;;1.27;1.17;;;9.00;40.80;;;;;;5067547;28;20039;-88
2024/01/29 01:53:21;;;;;;;0.95;0.90;;;8.90;41.40;;;;;;5076164;28;20024;-82
2024/01/29 01:55:47;;;;;;;2.97;1.20;;;8.80;42.20;;;;;;5063382;28;20485;-83
2024/01/29 01:58:14;;;;;;;3.70;1.10;;;8.90;41.00;;;;;;5075379;28;20060;-82
2024/01/29 02:00:40;;;;;;;1.90;1.17;;;8.90;41.30;;;;;;5072278;28;20028;-85
2024/01/29 02:03:06;;;;;;;1.27;1.00;;;8.90;40.50;;;;;;5073707;28;20029;-86
2024/01/29 02:05:32;;;;;;;1.40;0.88;;;8.90;41.50;;;;;;5067013;28;20211;-84
2024/01/29 02:07:58;;;;;;;1.10;1.00;;;8.80;40.80;;;;;;5056223;28;20126;-84
2024/01/29 02:10:23;;;;;;;2.28;1.02;;;8.80;41.00;;;;;;5062604;28;20024;-88
2024/01/29 02:12:49;;;;;;;1.30;1.20;;;8.80;41.00;;;;;;5061474;28;20389;-91
2024/01/29 02:15:15;;;;;;;1.20;1.10;;;8.90;40.10;;;;;;5073954;28;20024;-91
2024/01/29 02:17:41;;;;;;;1.75;1.17;;;9.00;40.50;;;;;;5064198;28;20504;-87
2024/01/29 02:20:08;;;;;;;0.95;0.95;;;9.00;40.90;;;;;;5070140;28;20034;-84
2024/01/29 02:22:33;;;;;;;1.08;1.05;;;9.00;41.30;;;;;;5075784;28;20051;-85
2024/01/29 02:24:59;;;;;;;1.33;0.98;;;8.90;41.50;;;;;;5081413;28;20595;-84
2024/01/29 02:27:24;;;;;;;1.20;0.80;;;8.80;40.90;;;;;;5079159;28;21256;-84
2024/01/29 02:29:50;;;;;;;7.35;1.00;;;8.80;40.30;;;;;;5079871;28;20067;-83
2024/01/29 02:32:15;;;;;;;0.98;0.90;;;8.80;42.10;;;;;;5064122;28;20039;-85
2024/01/29 02:34:41;;;;;;;8.15;1.15;;;8.70;42.20;;;;;;5064924;28;20063;-89
2024/01/29 02:37:07;;;;;;;0.90;0.90;;;8.70;43.00;;;;;;5063635;28;20613;-89
2024/01/29 02:39:33;;;;;;;1.08;0.98;;;8.70;41.50;;;;;;5073305;28;20040;-83
2024/01/29 02:41:58;;;;;;;2.28;1.00;;;8.80;41.10;;;;;;5061532;28;20254;-84
2024/01/29 02:44:24;;;;;;;2.83;1.15;;;8.80;41.00;;;;;;5064316;28;20482;-83
2024/01/29 02:46:49;;;;;;;1.42;0.85;;;8.80;40.90;;;;;;5069187;28;20057;-84
2024/01/29 02:49:15;;;;;;;1.17;1.08;;;8.90;40.90;;;;;;5068463;28;20024;-88
2024/01/29 02:51:41;;;;;;;2.78;1.10;;;8.90;41.30;;;;;;5049158;28;20538;-90
2024/01/29 02:54:06;;;;;;;2.72;0.90;;;9.00;40.50;;;;;;5061254;28;20079;-84
2024/01/29 02:56:32;;;;;;;0.70;0.70;;;9.00;41.20;;;;;;5069140;28;20040;-86
2024/01/29 02:58:58;;;;;;;0.80;0.80;;;9.00;39.60;;;;;;5067315;28;20983;-86
2024/01/29 03:01:23;;;;;;;1.38;1.27;;;9.00;40.50;;;;;;5073634;28;20032;-87
2024/01/29 03:03:49;;;;;;;0.88;0.88;;;9.00;41.00;;;;;;5066268;28;20036;-83
2024/01/29 03:06:15;;;;;;;0.77;0.77;;;9.10;40.20;;;;;;5064655;28;20032;-85
2024/01/29 03:08:42;;;;;;;0.80;0.80;;;9.10;41.10;;;;;;5053936;28;20391;-88
2024/01/29 03:11:08;;;;;;;1.02;0.90;;;9.00;41.40;;;;;;5061771;28;20020;-86
2024/01/29 03:13:37;;;;;;;1.10;1.00;;;9.00;40.90;;;;;;5072448;28;20035;-85
2024/01/29 03:16:03;;;;;;;1.02;0.70;;;9.00;40.40;;;;;;5069788;28;20028;-87
2024/01/29 03:18:28;;;;;;;1.42;1.27;;;8.90;41.70;;;;;;5068168;28;20470;-85
2024/01/29 03:20:54;;;;;;;2.20;1.00;;;8.90;40.60;;;;;;5064352;28;20662;-84
2024/01/29 03:23:20;;;;;;;1.52;1.38;;;9.00;40.40;;;;;;5065944;28;20466;-85
2024/01/29 03:25:46;;;;;;;1.08;0.98;;;9.00;41.50;;;;;;5056118;28;20036;-86
2024/01/29 03:28:11;;;;;;;2.08;1.13;;;9.00;41.00;;;;;;5061117;28;20023;-87
2024/01/29 03:30:37;;;;;;;1.40;1.00;;;9.00;39.90;;;;;;5066298;28;20035;-86
2024/01/29 03:33:02;;;;;;;3.20;1.15;;;9.00;40.20;;;;;;5063000;28;20027;-86
2024/01/29 03:35:28;;;;;;;1.10;1.00;;;9.00;40.40;;;;;;5072148;28;20021;-86
2024/01/29 03:41:44;;;;;;;3.05;1.60;;;8.80;42.70;;;;;;5059353;28;20035;-85
2024/01/29 03:44:09;;;;;;;2.08;1.52;;;8.70;42.70;;;;;;5054929;28;20037;-86
2024/01/29 03:46:35;;;;;;;1.20;0.95;;;8.50;44.60;;;;;;5065347;28;20039;-92
2024/01/29 03:49:00;;;;;;;0.80;0.80;;;8.50;43.50;;;;;;5061817;28;20448;-85
2024/01/29 03:51:26;;;;;;;2.58;1.25;;;8.40;43.70;;;;;;5063580;28;20083;-86
2024/01/29 03:53:51;;;;;;;1.38;1.20;;;8.40;43.30;;;;;;5059816;28;20481;-85
2024/01/29 03:56:17;;;;;;;0.80;0.80;;;8.50;42.20;;;;;;5063423;28;20078;-84
2024/01/29 03:58:43;;;;;;;1.08;0.85;;;8.50;42.90;;;;;;5067315;28;20035;-87
2024/01/29 04:01:08;;;;;;;1.23;0.95;;;8.60;42.90;;;;;;5059556;28;20609;-84
2024/01/29 04:03:34;;;;;;;2.75;1.05;;;8.60;42.10;;;;;;5060704;28;20036;-87
2024/01/29 04:06:05;;;;;;;1.20;1.08;;;8.80;41.80;;;;;;5070559;28;20393;-94
2024/01/29 04:08:30;;;;;;;1.30;1.17;;;8.90;41.30;;;;;;5053552;28;20033;-91
2024/01/29 04:10:56;;;;;;;2.97;1.25;;;8.90;41.50;;;;;;5066514;28;20077;-84
2024/01/29 04:13:21;;;;;;;2.95;0.90;;;8.90;41.90;;;;;;5059664;28;20033;-84
2024/01/29 04:15:47;;;;;;;5.03;1.42;;;8.80;42.50;;;;;;5057272;28;20531;-87
2024/01/29 04:18:12;;;;;;;0.90;0.90;;;8.80;43.60;;;;;;5056057;28;20032;-85
2024/01/29 04:20:38;;;;;;;1.95;1.30;;;8.70;43.40;;;;;;5055715;28;20037;-84
2024/01/29 04:23:03;;;;;;;1.73;1.10;;;8.60;43.40;;;;;;5072418;28;20131;-84
2024/01/29 04:25:29;;;;;;;1.63;1.00;;;8.60;43.80;;;;;;5065755;28;20520;-86
2024/01/29 04:31:17;;;;;;;0.90;0.90;;;8.50;46.30;;;;;;5052531;28;20157;-84
2024/01/29 04:33:43;;;;;;;2.55;1.13;;;8.40;48.00;;;;;;5050849;28;20496;-83
2024/01/29 04:36:55;;;;;;;2.78;1.00;;;8.20;50.40;;;;;;5061033;28;20314;-87
2024/01/29 04:39:21;;;;;;;1.17;1.00;;;8.00;48.60;;;;;;5044447;28;20037;-86
2024/01/29 04:41:46;;;;;;;1.27;1.17;;;7.90;50.20;;;;;;5048652;28;20025;-86
2024/01/29 04:44:14;;;;;;;0.95;0.90;;;7.80;51.90;;;;;;5057079;28;20044;-85
2024/01/29 04:46:43;;;;;;;1.10;1.00;;;7.60;55.00;;;;;;5058800;28;20032;-89
2024/01/29 04:49:08;;;;;;;0.85;0.85;;;7.50;55.90;;;;;;5058965;28;20034;-83
2024/01/29 04:51:34;;;;;;;1.17;0.90;;;7.30;57.80;;;;;;5054413;28;20248;-85
2024/01/29 04:54:00;;;;;;;1.17;0.93;;;7.20;58.10;;;;;;5053474;28;20033;-85
2024/01/29 04:56:25;;;;;;;2.00;0.98;;;7.10;59.40;;;;;;5057450;28;20037;-85
2024/01/29 04:58:51;;;;;;;1.20;1.17;;;7.00;61.10;;;;;;5057533;28;20662;-85
2024/01/29 05:01:17;;;;;;;1.23;1.13;;;7.10;56.00;;;;;;5057226;28;20078;-85
2024/01/29 05:03:44;;;;;;;5.45;1.20;;;7.10;59.20;;;;;;5067333;28;20604;-85
2024/01/29 05:06:10;;;;;;;1.42;1.10;;;7.00;61.70;;;;;;5057513;28;20507;-86
2024/01/29 05:08:36;;;;;;;2.05;1.27;;;7.10;56.50;;;;;;5074473;28;20071;-85
2024/01/29 05:11:02;;;;;;;3.95;1.30;;;7.10;60.70;;;;;;5059673;28;20459;-85
2024/01/29 05:13:27;;;;;;;1.42;1.33;;;7.00;64.70;;;;;;5063991;28;20108;-85
2024/01/29 05:15:53;;;;;;;3.53;1.38;;;6.90;63.40;;;;;;5066633;28;20032;-85
2024/01/29 05:18:19;;;;;;;1.73;1.38;;;6.90;59.20;;;;;;5075610;28;20024;-87
2024/01/29 05:20:45;;;;;;;1.40;1.20;;;6.90;58.50;;;;;;5055400;28;20021;-85
2024/01/29 05:23:11;;;;;;;4.18;1.48;;;7.00;58.80;;;;;;5060369;28;20333;-87
2024/01/29 05:25:36;;;;;;;1.27;1.20;;;7.10;58.60;;;;;;5065175;28;20055;-85
2024/01/29 05:28:02;;;;;;;1.70;1.40;;;7.20;57.60;;;;;;5054822;28;20029;-85
2024/01/29 05:30:28;;;;;;;2.10;1.50;;;7.10;58.50;;;;;;5052347;28;20477;-85
2024/01/29 05:32:53;;;;;;;4.43;1.95;;;7.20;59.60;;;;;;5035773;28;20037;-85
2024/01/29 05:35:44;;;;;;;3.67;1.50;;;7.10;60.40;;;;;;5054326;28;20055;-86
2024/01/29 05:38:09;;;;;;;3.08;1.50;;;7.10;65.80;;;;;;5058354;28;20025;-86
2024/01/29 05:40:35;;;;;;;1.58;1.27;;;7.00;66.80;;;;;;5066080;28;20036;-86
2024/01/29 05:43:00;;;;;;;3.40;1.40;;;6.90;69.70;;;;;;5058201;28;20032;-85
2024/01/29 05:45:26;;;;;;;1.40;1.30;;;6.80;68.00;;;;;;5058739;28;20140;-85
2024/01/29 05:47:52;;;;;;;3.40;2.13;;;6.80;70.20;;;;;;5042348;28;20432;-84
2024/01/29 05:50:17;;;;;;;2.40;1.55;;;6.80;66.40;;;;;;5055981;28;20055;-85
2024/01/29 05:52:43;;;;;;;3.10;1.63;;;6.80;66.00;;;;;;5053813;28;20512;-85
2024/01/29 05:55:28;;;;;;;2.95;1.65;;;6.80;66.50;;;;;;5055735;28;20031;-87
2024/01/29 05:57:54;;;;;;;5.30;2.00;;;6.80;70.40;;;;;;5068366;28;20036;-86
2024/01/29 06:00:20;;;;;;;3.80;2.00;;;6.80;71.40;;;;;;5065046;28;20040;-86
2024/01/29 06:02:48;;;;;;;4.07;1.55;;;6.80;69.10;;;;;;5064983;28;20427;-86
2024/01/29 06:05:33;;;;;;;2.67;1.92;;;6.80;70.30;;;;;;5062397;28;20486;-86
2024/01/29 06:07:59;;;;;;;7.32;2.15;;;6.70;70.30;;;;;;5050417;28;20041;-86
2024/01/29 06:10:25;;;;;;;7.45;3.47;;;6.70;76.10;;;;;;5071417;28;20123;-89
2024/01/29 06:12:51;;;;;;;24.35;7.05;;;6.60;86.80;;;;;;5074895;28;20191;-86
2024/01/29 06:15:17;;;;;;;22.25;9.43;;;6.40;89.60;;;;;;5067724;28;20095;-85
2024/01/29 06:17:42;;;;;;;26.38;10.40;;;6.20;91.90;;;;;;5067119;28;20595;-86
2024/01/29 06:20:11;;;;;;;23.13;7.97;;;6.20;93.30;;;;;;5043678;28;20029;-89
2024/01/29 06:22:37;;;;;;;17.08;7.45;;;6.10;98.50;;;;;;5064357;28;20481;-86
2024/01/29 06:25:03;;;;;;;11.82;4.68;;;6.00;99.90;;;;;;5066980;28;20127;-85
2024/01/29 06:27:28;;;;;;;15.70;4.90;;;5.90;99.90;;;;;;5070207;28;20417;-86
2024/01/29 06:29:54;;;;;;;6.07;3.50;;;5.90;99.40;;;;;;5066982;28;20024;-86
2024/01/29 06:32:19;;;;;;;5.05;2.55;;;5.90;98.80;;;;;;5035563;28;20523;-86
2024/01/29 06:34:45;;;;;;;10.88;3.03;;;5.90;99.90;;;;;;5068806;28;21193;-85
2024/01/29 06:37:11;;;;;;;9.10;2.85;;;5.90;99.90;;;;;;5060229;28;20547;-86
2024/01/29 06:39:37;;;;;;;4.00;2.05;;;5.80;99.90;;;;;;5068059;28;20063;-86
2024/01/29 06:42:03;;;;;;;4.43;2.28;;;5.80;99.90;;;;;;5057635;28;20047;-85
2024/01/29 06:44:29;;;;;;;4.38;1.95;;;5.70;99.90;;;;;;5065693;28;20784;-85
2024/01/29 06:46:55;;;;;;;4.05;2.33;;;5.70;99.90;;;;;;5054212;28;20116;-88
2024/01/29 06:49:30;;;;;;;3.95;2.35;;;5.70;99.90;;;;;;5068724;28;20025;-85
2024/01/29 06:51:56;;;;;;;;;;;5.70;99.90;;;;;;5064449;28;20052;-87
2024/01/29 06:54:21;;;;;;;;;;;5.70;99.90;;;;;;5066747;28;19908;-86
2024/01/29 06:56:47;;;;;;;6.40;2.40;;;5.60;99.90;;;;;;5058871;28;20472;-86
2024/01/29 06:59:14;;;;;;;4.40;2.28;;;5.60;99.90;;;;;;5042650;28;20054;-86
2024/01/29 07:01:39;;;;;;;2.50;2.30;;;5.50;99.90;;;;;;5057373;28;20391;-87
2024/01/29 07:04:05;;;;;;;6.70;1.85;;;5.50;99.90;;;;;;5059325;28;20044;-86
2024/01/29 07:06:33;;;;;;;5.85;3.50;;;5.50;99.90;;;;;;5061968;28;20067;-87
2024/01/29 07:09:12;;;;;;;11.55;3.00;;;5.50;99.90;;;;;;5055583;28;20127;-86
2024/01/29 07:11:37;;;;;;;5.65;2.90;;;5.50;99.90;;;;;;5061334;28;20645;-86
2024/01/29 07:14:03;;;;;;;6.05;3.38;;;5.40;99.90;;;;;;5056896;28;20104;-89
2024/01/29 07:16:28;;;;;;;8.50;3.60;;;5.40;99.90;;;;;;5047738;28;20038;-86
2024/01/29 07:18:54;;;;;;;10.07;3.42;;;5.40;99.90;;;;;;5057990;28;20048;-86
2024/01/29 07:21:20;;;;;;;3.90;2.33;;;5.40;99.90;;;;;;5060002;28;20097;-85
2024/01/29 07:23:49;;;;;;;3.50;2.30;;;5.50;99.90;;;;;;5062473;28;20039;-87
2024/01/29 07:26:15;;;;;;;9.48;2.67;;;5.40;99.90;;;;;;5068940;28;20511;-87
2024/01/29 07:28:41;;;;;;;4.10;2.08;;;5.50;99.90;;;;;;5063869;28;20088;-86
2024/01/29 07:31:06;;;;;;;2.05;1.80;;;5.60;99.90;;;;;;5062372;28;20123;-85
2024/01/29 07:33:32;;;;;;;6.05;3.15;;;5.80;98.50;;;;;;5061370;28;20143;-86
2024/01/29 07:35:57;;;;;;;3.10;1.92;;;6.00;98.60;;;;;;5062633;28;20043;-88
2024/01/29 07:38:23;;;;;;;2.85;1.60;;;6.30;93.50;;;;;;5053905;28;20025;-83
2024/01/29 07:40:50;;;;;;;2.60;1.88;;;6.80;86.20;;;;;;5058051;28;20432;-86
2024/01/29 07:43:16;;;;;;;3.42;2.38;;;7.20;83.10;;;;;;5056751;28;20032;-86
2024/01/29 07:45:43;;;;;;;2.20;1.70;;;7.40;83.10;;;;;;5063575;28;20511;-85
2024/01/29 07:48:09;;;;;;;2.75;1.77;;;7.40;86.40;;;;;;5063395;28;20029;-86
2024/01/29 07:50:35;;;;;;;3.35;1.73;;;7.40;89.60;;;;;;5038222;28;20034;-86
2024/01/29 07:53:01;;;;;;;5.25;2.15;;;7.40;88.20;;;;;;5053757;28;20039;-86
2024/01/29 07:55:28;;;;;;;3.08;1.98;;;7.50;87.70;;;;;;5070633;28;20112;-86
2024/01/29 07:57:53;;;;;;;2.75;2.03;;;7.50;86.40;;;;;;5060325;28;20274;-85
2024/01/29 08:00:20;;;;;;;2.78;1.90;;;7.60;93.00;;;;;;5069193;28;20428;-85
2024/01/29 08:02:45;;;;;;;4.40;2.58;;;7.60;94.00;;;;;;5073364;28;20295;-86
2024/01/29 08:05:11;;;;;;;2.38;2.17;;;7.60;94.10;;;;;;5067616;28;20032;-86
2024/01/29 08:07:37;;;;;;;4.22;2.58;;;7.70;93.30;;;;;;5064537;28;20465;-85
2024/01/29 08:10:04;;;;;;;5.10;2.90;;;7.80;93.30;;;;;;5060773;28;20025;-85
2024/01/29 08:12:29;;;;;;;7.50;4.63;;;7.80;95.40;;;;;;5076296;28;20385;-85
2024/01/29 08:14:55;;;;;;;9.77;4.60;;;7.90;97.70;;;;;;5078191;28;20016;-86
2024/01/29 08:17:20;;;;;;;9.07;4.68;;;7.80;97.40;;;;;;5072955;28;20537;-85
2024/01/29 08:19:46;;;;;;;7.78;3.90;;;7.90;96.90;;;;;;5051557;28;20029;-86
2024/01/29 08:22:11;;;;;;;7.82;3.00;;;8.00;95.70;;;;;;5055632;28;20021;-86
2024/01/29 08:24:38;;;;;;;4.85;2.85;;;8.00;94.90;;;;;;5067696;28;20047;-88
2024/01/29 08:27:04;;;;;;;5.18;3.05;;;8.10;94.80;;;;;;5065478;28;20300;-86
2024/01/29 08:29:29;;;;;;;4.07;2.40;;;8.20;95.40;;;;;;5075201;28;20036;-85
2024/01/29 08:31:55;;;;;;;6.70;2.47;;;8.30;95.50;;;;;;5063412;28;20024;-86
2024/01/29 08:34:20;;;;;;;7.75;2.13;;;8.30;96.30;;;;;;5064246;28;20295;-86
2024/01/29 08:36:46;;;;;;;5.22;2.55;;;8.40;94.00;;;;;;5055335;28;20516;-84
2024/01/29 08:39:11;;;;;;;6.53;2.40;;;8.70;91.80;;;;;;5066199;28;20017;-85
2024/01/29 08:41:37;;;;;;;4.28;2.28;;;8.80;92.00;;;;;;5055539;28;20044;-85
2024/01/29 08:44:06;;;;;;;5.20;2.20;;;8.80;93.60;;;;;;5064383;28;20044;-85
2024/01/29 08:46:32;;;;;;;2.55;1.88;;;8.80;94.10;;;;;;5077382;28;20030;-86
2024/01/29 08:48:57;;;;;;;3.30;1.95;;;8.80;94.90;;;;;;5051394;28;20032;-85
2024/01/29 08:51:23;;;;;;;4.18;2.35;;;8.80;95.90;;;;;;5063800;28;20071;-85
2024/01/29 08:53:49;;;;;;;3.97;2.35;;;8.80;98.20;;;;;;5056708;28;20029;-84
2024/01/29 08:56:15;;;;;;;3.72;3.00;;;8.90;96.00;;;;;;5063068;28;20640;-85
2024/01/29 08:58:41;;;;;;;4.20;1.67;;;8.90;96.40;;;;;;5059043;28;20032;-84
2024/01/29 09:01:07;;;;;;;4.00;2.38;;;8.80;97.00;;;;;;5054736;28;20414;-89
2024/01/29 09:03:32;;;;;;;9.52;2.55;;;8.90;98.40;;;;;;5051009;28;20029;-85
2024/01/29 09:05:58;;;;;;;2.90;2.30;;;9.10;93.40;;;;;;5070512;28;20036;-87
2024/01/29 09:08:24;;;;;;;6.75;3.00;;;9.30;93.80;;;;;;5084729;28;20056;-85
2024/01/29 09:10:49;;;;;;;5.03;2.45;;;9.40;92.20;;;;;;5084637;28;20027;-85
2024/01/29 09:13:15;;;;;;;3.70;2.30;;;9.40;92.30;;;;;;5070720;28;20024;-86
2024/01/29 09:15:41;;;;;;;4.45;2.65;;;9.60;91.60;;;;;;5069419;28;20048;-89
2024/01/29 09:18:06;;;;;;;4.07;2.10;;;9.50;94.60;;;;;;5082970;28;20021;-85
2024/01/29 09:20:32;;;;;;;5.13;2.70;;;9.60;94.70;;;;;;5074727;28;20050;-86
2024/01/29 09:22:57;;;;;;;6.28;3.10;;;9.50;94.40;;;;;;5076974;28;20070;-88
2024/01/29 09:25:23;;;;;;;5.03;2.42;;;9.60;94.40;;;;;;5073878;28;20560;-85
2024/01/29 09:27:49;;;;;;;4.45;2.47;;;9.70;93.20;;;;;;5078436;28;20085;-86
2024/01/29 09:30:14;;;;;;;6.18;2.67;;;9.70;95.20;;;;;;5071285;28;20426;-91
2024/01/29 09:32:43;;;;;;;7.55;2.63;;;9.80;93.40;;;;;;5073467;28;20081;-94
2024/01/29 09:35:10;;;;;;;4.47;2.25;;;9.90;92.80;;;;;;5074514;28;20029;-85
2024/01/29 09:37:37;;;;;;;3.97;2.55;;;9.90;94.10;;;;;;5065199;28;20032;-85
2024/01/29 09:40:03;;;;;;;5.03;2.63;;;9.90;97.70;;;;;;5079928;28;20382;-85
2024/01/29 09:42:33;;;;;;;6.53;2.85;;;9.80;98.40;;;;;;5081933;28;20024;-84
2024/01/29 09:45:00;;;;;;;5.40;2.50;;;9.80;96.30;;;;;;5075653;28;20105;-84
2024/01/29 09:47:27;;;;;;;5.75;2.70;;;9.80;97.10;;;;;;5070049;28;20028;-89
2024/01/29 09:49:54;;;;;;;5.38;2.55;;;9.80;96.60;;;;;;5081429;28;20077;-85
2024/01/29 09:52:21;;;;;;;4.57;2.80;;;9.80;95.50;;;;;;5074403;28;20024;-89
2024/01/29 09:54:49;;;;;;;4.28;2.55;;;9.80;96.50;;;;;;5073479;28;20024;-88
2024/01/29 09:57:15;;;;;;;5.35;2.55;;;9.90;95.10;;;;;;5073717;28;20034;-90
2024/01/29 09:59:41;;;;;;;5.63;3.08;;;9.90;96.30;;;;;;5078818;28;20028;-85
2024/01/29 10:02:09;;;;;;;5.72;2.65;;;9.90;96.70;;;;;;5082178;28;20031;-88
2024/01/29 10:04:35;;;;;;;5.82;3.33;;;9.80;98.60;;;;;;5075363;28;20093;-84
2024/01/29 10:07:05;;;;;;;6.35;3.25;;;9.70;99.80;;;;;;5085978;28;20116;-85
2024/01/29 10:09:31;;;;;;;4.55;2.58;;;9.70;99.90;;;;;;5077227;28;20049;-84
2024/01/29 10:11:56;;;;;;;7.93;3.00;;;9.80;99.90;;;;;;5086387;28;20538;-84
2024/01/29 10:14:22;;;;;;;3.83;2.63;;;9.70;99.90;;;;;;5067349;28;20469;-85
2024/01/29 10:16:49;;;;;;;5.13;2.42;;;9.80;99.90;;;;;;5068706;28;20025;-85
2024/01/29 10:19:15;;;;;;;4.78;2.65;;;9.80;99.90;;;;;;5064262;28;20456;-88
2024/01/29 10:21:43;;;;;;;7.55;2.40;;;9.80;99.90;;;;;;5059682;28;20028;-88
2024/01/29 10:24:16;;;;;;;6.43;2.88;;;9.70;99.90;;;;;;5049510;28;20584;-85
2024/01/29 10:26:43;;;;;;;5.75;2.63;;;9.70;99.90;;;;;;5067786;28;20040;-86
2024/01/29 10:29:12;;;;;;;5.47;2.85;;;9.60;99.90;;;;;;5062586;28;20104;-87
2024/01/29 10:31:38;;;;;;;5.43;3.70;;;9.60;99.90;;;;;;5056420;28;20424;-85
2024/01/29 10:34:05;;;;;;;6.47;3.17;;;9.50;99.90;;;;;;5071849;28;20336;-85
2024/01/29 10:36:31;;;;;;;5.20;2.70;;;9.50;99.90;;;;;;5064788;28;20034;-85
2024/01/29 10:38:58;;;;;;;10.75;3.53;;;9.60;99.90;;;;;;5067414;28;20024;-87
2024/01/29 10:41:25;;;;;;;4.85;3.17;;;9.60;99.90;;;;;;5078341;28;20024;-85
2024/01/29 10:43:52;;;;;;;7.40;3.45;;;9.70;99.90;;;;;;5052136;28;20123;-89
2024/01/29 10:46:22;;;;;;;6.45;3.20;;;9.70;99.90;;;;;;5071746;28;20044;-85
2024/01/29 10:48:51;;;;;;;5.28;2.72;;;9.70;99.90;;;;;;5067644;28;20031;-87
2024/01/29 10:51:17;;;;;;;6.10;2.90;;;9.70;99.90;;;;;;5059690;28;20504;-85
2024/01/29 10:53:45;;;;;;;7.07;2.90;;;9.80;99.90;;;;;;5075970;28;20035;-86
2024/01/29 10:56:12;;;;;;;8.10;4.47;;;10.00;99.90;;;;;;5064064;28;20025;-86
2024/01/29 10:58:40;;;;;;;9.20;3.92;;;10.10;99.90;;;;;;5066655;28;20036;-86
2024/01/29 11:01:10;;;;;;;5.32;3.78;;;10.10;99.90;;;;;;5060512;28;20032;-89
2024/01/29 11:03:36;;;;;;;6.15;3.65;;;10.20;99.90;;;;;;5065747;28;20035;-89
2024/01/29 11:06:13;;;;;;;11.73;3.88;;;10.20;99.90;;;;;;5063425;28;20507;-87
2024/01/29 11:08:41;;;;;;;17.90;3.50;;;10.30;99.90;;;;;;5065970;28;20028;-85
2024/01/29 11:11:08;;;;;;;11.02;4.82;;;10.30;99.90;;;;;;5077950;28;20028;-87
2024/01/29 11:13:36;;;;;;;7.13;3.35;;;10.40;99.90;;;;;;5070329;28;20129;-91
2024/01/29 11:16:01;;;;;;;12.02;3.65;;;10.50;99.90;;;;;;5075038;28;20028;-88
2024/01/29 11:18:33;;;;;;;4.35;2.92;;;10.40;99.90;;;;;;5064498;28;20039;-89
2024/01/29 11:21:00;;;;;;;6.35;3.63;;;10.50;99.90;;;;;;5063896;28;20028;-90
2024/01/29 11:23:27;;;;;;;4.10;3.00;;;10.50;99.90;;;;;;5057565;28;20040;-87
2024/01/29 11:25:53;;;;;;;5.75;3.78;;;10.50;99.90;;;;;;5072145;28;20037;-85
2024/01/29 11:28:19;;;;;;;8.68;3.70;;;10.60;99.90;;;;;;5073946;28;20035;-84
2024/01/29 11:30:52;;;;;;;6.15;3.33;;;10.50;99.90;;;;;;5084803;28;20111;-93
2024/01/29 11:33:19;;;;;;;9.23;4.00;;;10.50;99.90;;;;;;5070724;28;20050;-85
2024/01/29 11:35:46;;;;;;;6.47;4.30;;;10.50;99.90;;;;;;5069283;28;20040;-95
2024/01/29 11:38:13;;;;;;;8.70;3.72;;;10.40;99.90;;;;;;5063552;28;20448;-85
2024/01/29 11:40:41;;;;;;;6.10;3.33;;;10.50;99.90;;;;;;5068884;28;20016;-87
2024/01/29 11:43:14;;;;;;;6.63;2.95;;;10.50;99.90;;;;;;5052300;28;20489;-88
2024/01/29 11:45:50;;;;;;;13.07;4.03;;;10.50;99.90;;;;;;5071484;28;20048;-91
2024/01/29 11:48:18;;;;;;;6.35;3.20;;;10.60;99.90;;;;;;5062702;28;20028;-86
2024/01/29 11:50:48;;;;;;;6.10;3.33;;;10.70;99.90;;;;;;5061977;28;20028;-83
2024/01/29 11:53:16;;;;;;;6.15;2.92;;;10.70;99.90;;;;;;5058234;28;20035;-85
2024/01/29 11:55:43;;;;;;;8.65;2.70;;;10.80;99.90;;;;;;5063761;28;20164;-87
2024/01/29 11:58:13;;;;;;;6.78;3.08;;;10.80;99.60;;;;;;5066402;28;20016;-85
2024/01/29 12:00:40;;;;;;;6.60;3.30;;;10.90;99.90;;;;;;5069726;28;20058;-87
2024/01/29 12:03:12;;;;;;;10.10;3.65;;;10.90;99.90;;;;;;5071847;28;20024;-89
2024/01/29 12:05:40;;;;;;;6.90;3.08;;;10.90;99.10;;;;;;5060059;28;20094;-84
2024/01/29 12:08:16;;;;;;;6.55;3.10;;;10.90;99.90;;;;;;5065928;28;20032;-86
2024/01/29 12:10:46;;;;;;;5.30;3.08;;;10.90;98.40;;;;;;5063400;28;20393;-86
2024/01/29 12:13:17;;;;;;;6.97;2.65;;;11.00;97.60;;;;;;5068743;28;20481;-84
2024/01/29 12:15:49;;;;;;;6.35;3.13;;;11.10;98.60;;;;;;5066342;28;20033;-85
2024/01/29 12:18:16;;;;;;;5.18;2.72;;;11.10;98.40;;;;;;5065361;28;20029;-85
2024/01/29 12:20:42;;;;;;;4.10;2.60;;;11.10;99.70;;;;;;5063616;28;20028;-87
2024/01/29 12:23:07;;;;;;;9.02;3.08;;;11.10;99.20;;;;;;5078051;28;20032;-90
2024/01/29 12:25:33;;;;;;;6.00;2.75;;;11.10;98.40;;;;;;5058226;28;20401;-83
2024/01/29 12:28:07;;;;;;;9.15;2.95;;;11.10;99.50;;;;;;5064006;28;20366;-85
2024/01/29 12:30:33;;;;;;;10.00;3.10;;;11.10;99.90;;;;;;5058266;28;20474;-83
2024/01/29 12:33:00;;;;;;;7.43;3.30;;;11.30;99.60;;;;;;5083131;28;20032;-84
2024/01/29 12:35:29;;;;;;;4.93;2.50;;;11.30;98.50;;;;;;5074580;28;20048;-85
2024/01/29 12:38:08;;;;;;;5.13;2.55;;;11.40;98.20;;;;;;5069717;28;20028;-85
2024/01/29 12:40:35;;;;;;;7.38;2.80;;;11.40;99.90;;;;;;5074148;28;20352;-83
2024/01/29 12:43:01;;;;;;;5.43;3.13;;;11.40;99.90;;;;;;5065294;28;20024;-83
2024/01/29 12:45:31;;;;;;;5.88;3.35;;;11.40;97.90;;;;;;5043906;28;20056;-86
2024/01/29 12:48:06;;;;;;;7.80;2.83;;;11.40;99.70;;;;;;5063233;28;20031;-87
2024/01/29 12:50:40;;;;;;;6.32;2.85;;;11.40;99.90;;;;;;5063224;28;20353;-87
2024/01/29 12:53:10;;;;;;;5.38;3.28;;;11.40;99.90;;;;;;5068504;28;20054;-86
2024/01/29 12:55:36;;;;;;;7.97;2.90;;;11.40;99.90;;;;;;5072027;28;20035;-90
2024/01/29 12:58:02;;;;;;;5.70;2.75;;;11.40;99.90;;;;;;5059849;28;20055;-85
2024/01/29 13:00:29;;;;;;;4.18;2.97;;;11.50;99.90;;;;;;5065462;28;20025;-85